Time;durP1;ratioP1;P1;durP2;ratioP2;P2;SDS_P1;SDS_P2;PMS_P1;PMS_P2;Temp;Humidity;BMP_temperature;BMP_pressure;BME280_temperature;BME280_humidity;BME280_pressure;Samples;Min_cycle;Max_cycle;Signal;HPM_P1;HPM_P2
2021/07/12 00:00:01;;;;;;;10.88;8.95;;;;;;;17.86;100.00;100860.31;4994270;28;20133;-83
2021/07/12 00:02:30;;;;;;;9.73;8.45;;;;;;;17.83;100.00;100866.69;4969431;28;20914;-82
2021/07/12 00:04:57;;;;;;;11.40;8.82;;;;;;;17.82;100.00;100864.03;4995051;28;20036;-83
2021/07/12 00:07:27;;;;;;;9.48;8.48;;;;;;;17.76;100.00;100865.22;4995040;28;20046;-82
2021/07/12 00:09:54;;;;;;;11.68;9.13;;;;;;;17.80;100.00;100861.44;4996784;28;20042;-82
2021/07/12 00:12:20;;;;;;;12.18;9.27;;;;;;;17.69;100.00;100861.06;4995308;28;20049;-82
2021/07/12 00:14:47;;;;;;;8.93;8.02;;;;;;;17.58;100.00;100860.72;4964919;28;20574;-82
2021/07/12 00:17:14;;;;;;;9.38;8.18;;;;;;;17.58;100.00;100868.72;4975316;28;20049;-82
2021/07/12 00:19:41;;;;;;;11.18;9.55;;;;;;;17.67;100.00;100865.63;4988921;28;20046;-83
2021/07/12 00:22:08;;;;;;;10.30;9.20;;;;;;;17.57;100.00;100869.63;4979974;28;20050;-82
2021/07/12 00:24:35;;;;;;;10.23;8.82;;;;;;;17.60;100.00;100874.84;4973462;28;20050;-82
2021/07/12 00:27:07;;;;;;;10.90;9.55;;;;;;;17.67;100.00;100870.97;4995173;28;20077;-83
2021/07/12 00:29:39;;;;;;;10.73;9.40;;;;;;;17.57;100.00;100867.84;4993424;28;20050;-83
2021/07/12 00:32:06;;;;;;;10.15;9.15;;;;;;;17.56;100.00;100863.44;4991740;28;20042;-83
2021/07/12 00:34:33;;;;;;;12.30;9.95;;;;;;;17.60;100.00;100866.84;4993845;28;20044;-82
2021/07/12 00:37:00;;;;;;;11.27;9.02;;;;;;;17.53;100.00;100868.91;4990759;28;20045;-82
2021/07/12 00:39:27;;;;;;;15.18;10.20;;;;;;;17.55;100.00;100855.50;4996138;28;20053;-82
2021/07/12 00:41:53;;;;;;;10.63;9.52;;;;;;;17.54;100.00;100857.28;4976625;28;21673;-81
2021/07/12 00:44:20;;;;;;;10.32;9.20;;;;;;;17.48;100.00;100860.25;4991572;28;20042;-82
2021/07/12 00:46:47;;;;;;;12.88;9.43;;;;;;;17.52;100.00;100853.84;4970455;28;20046;-82
2021/07/12 00:49:19;;;;;;;10.60;9.43;;;;;;;17.41;100.00;100865.03;4971802;28;20124;-82
2021/07/12 00:51:46;;;;;;;10.43;9.32;;;;;;;17.33;100.00;100861.81;4963566;28;20069;-82
2021/07/12 00:54:14;;;;;;;10.77;9.43;;;;;;;17.29;100.00;100860.22;5013368;28;20109;-82
2021/07/12 00:56:40;;;;;;;14.25;10.50;;;;;;;17.34;100.00;100874.25;4990156;28;20057;-82
2021/07/12 00:59:09;;;;;;;11.60;9.95;;;;;;;17.33;100.00;100871.66;4993560;28;20503;-82
2021/07/12 01:01:36;;;;;;;12.18;10.32;;;;;;;17.32;100.00;100877.88;4975349;28;20042;-82
2021/07/12 01:04:03;;;;;;;11.32;10.23;;;;;;;17.29;100.00;100876.25;4997492;28;20491;-82
2021/07/12 01:06:30;;;;;;;11.52;10.32;;;;;;;17.31;100.00;100881.50;4980271;28;20398;-82
2021/07/12 01:08:56;;;;;;;10.73;9.63;;;;;;;17.27;100.00;100872.78;4961399;28;20183;-82
2021/07/12 01:11:32;;;;;;;10.65;9.45;;;;;;;17.23;100.00;100867.63;4992731;28;20105;-82
2021/07/12 01:14:05;;;;;;;11.23;9.23;;;;;;;17.16;100.00;100872.41;4996945;28;20045;-82
2021/07/12 01:16:48;;;;;;;10.65;9.55;;;;;;;17.16;100.00;100870.59;4996544;28;20045;-82
2021/07/12 01:19:49;;;;;;;10.80;9.65;;;;;;;17.16;100.00;100872.41;4980114;28;20049;-82
2021/07/12 01:22:45;;;;;;;10.48;9.38;;;;;;;17.23;100.00;100871.16;4995784;28;20042;-82
2021/07/12 01:25:49;;;;;;;10.93;9.70;;;;;;;17.16;100.00;100870.59;4974723;28;20042;-82
2021/07/12 01:28:19;;;;;;;11.35;10.18;;;;;;;17.13;100.00;100864.50;4991513;28;20041;-82
2021/07/12 01:31:06;;;;;;;11.00;9.82;;;;;;;17.12;100.00;100868.09;4994295;28;20050;-82
2021/07/12 01:33:46;;;;;;;12.95;9.98;;;;;;;17.19;100.00;100863.38;4997504;28;20076;-82
2021/07/12 01:36:35;;;;;;;11.70;10.23;;;;;;;17.01;100.00;100875.72;4977027;28;20054;-82
2021/07/12 01:39:13;;;;;;;11.57;10.07;;;;;;;17.03;100.00;100877.41;4994863;28;20069;-83
2021/07/12 01:41:58;;;;;;;12.00;10.80;;;;;;;17.10;100.00;100870.00;4962187;28;20063;-82
2021/07/12 01:44:46;;;;;;;12.65;10.50;;;;;;;17.01;100.00;100881.06;4997407;28;20038;-82
2021/07/12 01:47:15;;;;;;;12.98;10.60;;;;;;;17.05;100.00;100870.19;4992640;28;20042;-82
2021/07/12 01:50:08;;;;;;;10.98;9.88;;;;;;;17.04;100.00;100867.59;4995650;28;20061;-82
2021/07/12 01:52:58;;;;;;;11.95;10.65;;;;;;;17.02;100.00;100877.47;4980813;28;20061;-82
2021/07/12 01:55:31;;;;;;;12.45;10.63;;;;;;;17.05;100.00;100869.31;4975616;28;21333;-81
2021/07/12 01:58:24;;;;;;;11.38;10.27;;;;;;;16.93;100.00;100861.84;4994560;28;20053;-82
2021/07/12 02:00:53;;;;;;;12.60;10.85;;;;;;;16.89;100.00;100858.44;4948793;28;20116;-82
2021/07/12 02:03:21;;;;;;;12.32;11.05;;;;;;;16.86;100.00;100856.78;4980821;28;20050;-82
2021/07/12 02:05:48;;;;;;;14.60;11.10;;;;;;;16.87;100.00;100852.31;4963579;28;20042;-81
2021/07/12 02:08:19;;;;;;;13.73;11.13;;;;;;;16.84;100.00;100847.97;4993951;28;20042;-83
2021/07/12 02:10:50;;;;;;;13.57;11.10;;;;;;;16.83;100.00;100848.06;4998460;28;20411;-82
2021/07/12 02:13:20;;;;;;;11.70;10.23;;;;;;;16.80;100.00;100846.34;4981541;28;20113;-81
2021/07/12 02:15:50;;;;;;;13.25;11.38;;;;;;;16.80;100.00;100843.69;4960746;28;20053;-81
2021/07/12 02:18:18;;;;;;;12.38;10.88;;;;;;;16.85;100.00;100839.03;4980161;28;20053;-82
2021/07/12 02:20:46;;;;;;;11.75;10.10;;;;;;;16.79;100.00;100841.09;4983986;28;20052;-80
2021/07/12 02:23:14;;;;;;;11.70;10.48;;;;;;;16.81;100.00;100844.56;4997869;28;20046;-80
2021/07/12 02:25:41;;;;;;;12.13;9.65;;;;;;;16.80;100.00;100845.50;4978515;28;20038;-81
2021/07/12 02:28:10;;;;;;;13.77;10.75;;;;;;;16.87;100.00;100838.97;4964648;28;20049;-82
2021/07/12 02:30:37;;;;;;;13.63;10.70;;;;;;;16.79;100.00;100830.41;4994555;28;20499;-81
2021/07/12 02:33:04;;;;;;;11.90;10.63;;;;;;;16.74;100.00;100830.63;4977370;28;20054;-80
2021/07/12 02:35:33;;;;;;;12.32;10.43;;;;;;;16.68;100.00;100828.19;4990153;28;20034;-82
2021/07/12 02:38:03;;;;;;;12.68;11.38;;;;;;;16.63;100.00;100821.31;4996387;28;20470;-81
2021/07/12 02:40:29;;;;;;;14.43;10.93;;;;;;;16.60;100.00;100817.84;4977750;28;20041;-81
2021/07/12 02:43:01;;;;;;;12.75;10.88;;;;;;;16.63;100.00;100822.19;4979235;28;20065;-82
2021/07/12 02:45:29;;;;;;;12.65;11.35;;;;;;;16.61;100.00;100819.56;4979022;28;20046;-80
2021/07/12 02:47:56;;;;;;;12.90;10.90;;;;;;;16.65;100.00;100820.34;4979626;28;20041;-82
2021/07/12 02:50:24;;;;;;;12.20;10.70;;;;;;;16.67;100.00;100818.47;4976909;28;20054;-82
2021/07/12 02:52:51;;;;;;;12.85;11.15;;;;;;;16.56;100.00;100813.59;4993690;28;20042;-82
2021/07/12 02:55:18;;;;;;;11.98;10.57;;;;;;;16.53;100.00;100818.16;4976072;28;20065;-80
2021/07/12 02:57:44;;;;;;;13.20;11.43;;;;;;;16.60;100.00;100814.31;4977669;28;20049;-81
2021/07/12 03:00:12;;;;;;;12.95;11.18;;;;;;;16.55;100.00;100813.63;4977915;28;20053;-81
2021/07/12 03:02:40;;;;;;;11.98;10.73;;;;;;;16.46;100.00;100806.88;4978225;28;20052;-82
2021/07/12 03:05:08;;;;;;;10.90;9.80;;;;;;;16.41;100.00;100811.56;4963390;28;20042;-80
2021/07/12 03:07:45;;;;;;;12.23;10.90;;;;;;;16.46;100.00;100811.34;4993419;28;20143;-82
2021/07/12 03:10:17;;;;;;;13.18;10.95;;;;;;;16.46;100.00;100817.56;4978690;28;20513;-82
2021/07/12 03:12:52;;;;;;;13.40;10.73;;;;;;;16.55;100.00;100819.84;4991448;28;20527;-83
2021/07/12 03:15:20;;;;;;;12.20;10.27;;;;;;;16.55;100.00;100806.50;4958553;28;20129;-81
2021/07/12 03:17:51;;;;;;;13.10;10.75;;;;;;;16.50;100.00;100823.66;4975268;28;20034;-80
2021/07/12 03:20:19;;;;;;;12.02;10.80;;;;;;;16.41;100.00;100818.69;5003849;28;20038;-81
2021/07/12 03:22:52;;;;;;;14.40;10.65;;;;;;;16.34;100.00;100818.09;4979516;28;20045;-82
2021/07/12 03:25:30;;;;;;;11.77;10.32;;;;;;;16.36;100.00;100815.34;4978466;28;20654;-81
2021/07/12 03:27:58;;;;;;;11.90;10.57;;;;;;;16.35;100.00;100822.47;4976827;28;20039;-82
2021/07/12 03:30:26;;;;;;;13.80;11.68;;;;;;;16.35;100.00;100827.81;4970780;28;20042;-81
2021/07/12 03:32:53;;;;;;;14.20;11.02;;;;;;;16.39;100.00;100825.88;4983012;28;20437;-80
2021/07/12 03:35:21;;;;;;;12.23;10.93;;;;;;;16.36;100.00;100832.22;4961189;28;20427;-83
2021/07/12 03:37:49;;;;;;;12.90;11.25;;;;;;;16.31;100.00;100821.75;4963358;28;20446;-82
2021/07/12 03:40:17;;;;;;;12.55;11.25;;;;;;;16.31;100.00;100820.84;4978097;28;20157;-81
2021/07/12 03:42:44;;;;;;;12.07;10.88;;;;;;;16.32;100.00;100825.28;4994033;28;20081;-80
2021/07/12 03:45:13;;;;;;;13.55;11.90;;;;;;;16.31;100.00;100823.53;4998967;28;20520;-79
2021/07/12 03:47:39;;;;;;;14.00;12.00;;;;;;;16.36;100.00;100818.03;4978585;28;20057;-80
2021/07/12 03:50:12;;;;;;;14.57;11.57;;;;;;;16.38;100.00;100813.47;4991439;28;20039;-82
2021/07/12 03:52:48;;;;;;;13.05;11.75;;;;;;;16.33;100.00;100814.56;4993537;28;20101;-82
2021/07/12 03:55:18;;;;;;;12.40;11.10;;;;;;;16.28;100.00;100818.34;4980538;28;20052;-82
2021/07/12 03:57:45;;;;;;;13.48;12.13;;;;;;;16.38;100.00;100816.16;4963481;28;20064;-82
2021/07/12 04:00:15;;;;;;;13.40;11.68;;;;;;;16.37;100.00;100814.41;4989487;28;20496;-81
2021/07/12 04:02:43;;;;;;;12.73;11.43;;;;;;;16.35;100.00;100817.16;4991577;28;20042;-81
2021/07/12 04:05:10;;;;;;;12.07;10.70;;;;;;;16.40;100.00;100809.84;4970302;28;20096;-81
2021/07/12 04:07:38;;;;;;;13.20;11.80;;;;;;;16.40;100.00;100812.50;4974024;28;20053;-83
2021/07/12 04:10:09;;;;;;;12.70;11.45;;;;;;;16.40;100.00;100808.97;4967253;28;20386;-82
2021/07/12 04:12:37;;;;;;;12.75;11.30;;;;;;;16.40;100.00;100803.66;4960234;28;20140;-81
2021/07/12 04:15:04;;;;;;;13.98;12.18;;;;;;;16.42;100.00;100801.78;4992992;28;20038;-81
2021/07/12 04:17:31;;;;;;;13.18;11.75;;;;;;;16.39;100.00;100801.88;4976384;28;20045;-82
2021/07/12 04:19:58;;;;;;;13.55;11.63;;;;;;;16.39;100.00;100807.22;4976689;28;20142;-82
2021/07/12 04:22:25;;;;;;;13.05;11.65;;;;;;;16.44;100.00;100810.56;4975728;28;20050;-82
2021/07/12 04:24:52;;;;;;;15.27;12.95;;;;;;;16.48;100.00;100806.81;4975557;28;20392;-81
2021/07/12 04:27:19;;;;;;;14.50;12.98;;;;;;;16.61;100.00;100808.91;4986042;28;20574;-81
2021/07/12 04:29:46;;;;;;;13.82;12.43;;;;;;;16.66;100.00;100803.38;4957447;28;20054;-81
2021/07/12 04:32:12;;;;;;;14.13;12.30;;;;;;;16.69;100.00;100803.28;4990962;28;20044;-80
2021/07/12 04:34:39;;;;;;;13.23;11.93;;;;;;;16.76;100.00;100796.75;4992877;28;20073;-81
2021/07/12 04:37:06;;;;;;;14.25;12.75;;;;;;;16.76;100.00;100799.41;4975632;28;20079;-80
2021/07/12 04:39:33;;;;;;;13.50;12.20;;;;;;;16.77;100.00;100790.47;4975357;28;20181;-80
2021/07/12 04:42:02;;;;;;;13.48;12.07;;;;;;;16.84;100.00;100797.28;4976350;28;20100;-81
2021/07/12 04:44:29;;;;;;;14.70;11.70;;;;;;;16.86;100.00;100786.53;4976940;28;20524;-79
2021/07/12 04:46:57;;;;;;;13.48;12.07;;;;;;;16.88;100.00;100785.50;5039800;23;20106;-82
2021/07/12 04:49:24;;;;;;;13.35;11.98;;;;;;;16.93;100.00;100793.34;4924449;29;20377;-83
2021/07/12 04:51:51;;;;;;;12.93;11.68;;;;;;;16.98;100.00;100785.09;4915190;29;20053;-82
2021/07/12 04:54:17;;;;;;;14.23;12.05;;;;;;;17.06;100.00;100782.94;4951423;29;20456;-83
2021/07/12 04:56:44;;;;;;;13.40;11.98;;;;;;;17.14;100.00;100786.16;4933415;29;20043;-83
2021/07/12 04:59:12;;;;;;;13.07;11.77;;;;;;;17.22;100.00;100784.00;4902583;29;20543;-82
2021/07/12 05:01:41;;;;;;;12.05;10.85;;;;;;;17.26;100.00;100782.94;4933692;29;20050;-83
2021/07/12 05:04:08;;;;;;;13.52;12.23;;;;;;;17.31;100.00;100785.38;4950578;28;20464;-81
2021/07/12 05:06:35;;;;;;;14.27;12.77;;;;;;;17.34;100.00;100782.56;4933701;29;20039;-83
2021/07/12 05:09:02;;;;;;;13.57;12.25;;;;;;;17.33;100.00;100787.06;4934179;29;20496;-83
2021/07/12 05:11:30;;;;;;;13.80;12.40;;;;;;;17.41;100.00;100790.22;4917511;29;20090;-83
2021/07/12 05:13:56;;;;;;;12.73;11.38;;;;;;;17.53;100.00;100782.56;4934447;29;20050;-84
2021/07/12 05:16:24;;;;;;;13.50;11.90;;;;;;;17.54;100.00;100781.63;4932978;29;20131;-83
2021/07/12 05:18:51;;;;;;;13.52;12.13;;;;;;;17.56;100.00;100785.09;4918236;28;20043;-84
2021/07/12 05:21:18;;;;;;;14.35;12.95;;;;;;;17.64;100.00;100786.47;4912011;29;20047;-84
2021/07/12 05:23:46;;;;;;;13.70;12.23;;;;;;;17.73;100.00;100779.84;4944286;28;20051;-83
2021/07/12 05:26:15;;;;;;;13.55;12.05;;;;;;;17.69;100.00;100776.44;4949184;28;20050;-84
2021/07/12 05:28:42;;;;;;;13.80;12.35;;;;;;;17.75;100.00;100774.44;4904920;28;20151;-84
2021/07/12 05:31:09;;;;;;;12.70;11.40;;;;;;;17.73;100.00;100780.69;4930691;29;20051;-83
2021/07/12 05:33:36;;;;;;;13.65;12.35;;;;;;;17.76;100.00;100774.38;4938402;29;20040;-85
2021/07/12 05:36:03;;;;;;;14.35;12.90;;;;;;;17.81;100.00;100776.78;4926545;29;20043;-82
2021/07/12 05:38:30;;;;;;;13.13;11.82;;;;;;;17.79;100.00;100766.19;4935323;28;20054;-83
2021/07/12 05:40:56;;;;;;;13.55;12.13;;;;;;;17.83;100.00;100762.44;4944813;28;20110;-84
2021/07/12 05:43:23;;;;;;;13.70;12.07;;;;;;;17.86;100.00;100770.28;4919115;29;20062;-83
2021/07/12 05:45:50;;;;;;;13.68;12.27;;;;;;;17.85;100.00;100768.56;4920857;29;20035;-83
2021/07/12 05:48:16;;;;;;;13.10;11.88;;;;;;;17.91;100.00;100768.28;4918871;29;20043;-81
2021/07/12 05:50:43;;;;;;;13.32;12.02;;;;;;;17.89;100.00;100770.13;4931147;28;20039;-84
2021/07/12 05:53:10;;;;;;;12.18;11.07;;;;;;;17.96;100.00;100776.91;4934137;29;20082;-84
2021/07/12 05:55:36;;;;;;;12.98;11.77;;;;;;;17.98;100.00;100772.34;4932897;29;20047;-84
2021/07/12 05:58:03;;;;;;;13.25;11.68;;;;;;;18.02;100.00;100774.91;4950127;29;20043;-84
2021/07/12 06:00:30;;;;;;;12.32;11.10;;;;;;;18.00;100.00;100778.50;4932249;28;20057;-84
2021/07/12 06:02:56;;;;;;;13.60;12.30;;;;;;;18.05;100.00;100769.38;4951120;29;20512;-85
2021/07/12 06:05:23;;;;;;;12.18;11.02;;;;;;;18.10;100.00;100780.72;4933380;28;20043;-83
2021/07/12 06:07:50;;;;;;;12.88;11.57;;;;;;;18.17;100.00;100771.47;4926068;29;20047;-84
2021/07/12 06:10:17;;;;;;;12.45;11.25;;;;;;;18.18;100.00;100776.72;4937608;29;20044;-83
2021/07/12 06:12:43;;;;;;;12.85;11.55;;;;;;;18.09;100.00;100779.00;4915349;29;20633;-83
2021/07/12 06:15:11;;;;;;;12.25;11.05;;;;;;;18.09;100.00;100787.88;4941440;29;20043;-85
2021/07/12 06:17:38;;;;;;;12.80;11.60;;;;;;;18.16;100.00;100791.09;4907846;29;20070;-84
2021/07/12 06:20:07;;;;;;;12.82;11.52;;;;;;;18.23;100.00;100789.84;4925041;28;20697;-85
2021/07/12 06:22:34;;;;;;;13.23;11.32;;;;;;;18.28;100.00;100799.38;4933096;29;20047;-84
2021/07/12 06:25:02;;;;;;;12.73;11.40;;;;;;;18.33;100.00;100798.28;4929030;29;20472;-84
2021/07/12 06:27:28;;;;;;;13.15;11.95;;;;;;;18.39;100.00;100796.16;4915675;29;20532;-83
2021/07/12 06:29:55;;;;;;;12.40;11.20;;;;;;;18.48;100.00;100803.72;4922345;29;20445;-84
2021/07/12 06:32:22;;;;;;;12.13;10.85;;;;;;;18.42;100.00;100803.19;4933038;29;20054;-83
2021/07/12 06:34:48;;;;;;;12.50;10.52;;;;;;;18.36;100.00;100801.69;4930680;29;20516;-84
2021/07/12 06:37:15;;;;;;;12.68;11.40;;;;;;;18.46;100.00;100808.28;4947154;29;20047;-84
2021/07/12 06:39:42;;;;;;;13.23;11.15;;;;;;;18.39;100.00;100812.22;4948784;29;20527;-85
2021/07/12 06:42:08;;;;;;;11.35;10.25;;;;;;;18.51;100.00;100822.31;4931237;29;20048;-82
2021/07/12 06:44:35;;;;;;;11.65;10.32;;;;;;;18.58;100.00;100817.50;4924381;29;20044;-83
2021/07/12 06:47:02;;;;;;;12.90;11.60;;;;;;;18.54;100.00;100814.13;4920284;29;20071;-83
2021/07/12 06:49:29;;;;;;;12.52;11.32;;;;;;;18.60;100.00;100809.41;4933927;28;20420;-83
2021/07/12 06:51:56;;;;;;;13.35;12.00;;;;;;;18.53;100.00;100800.81;4904780;29;20046;-83
2021/07/12 06:54:23;;;;;;;11.95;10.85;;;;;;;18.52;100.00;100791.94;4941334;29;20055;-83
2021/07/12 06:56:49;;;;;;;13.57;12.18;;;;;;;18.64;100.00;100784.22;4952326;28;20037;-83
2021/07/12 06:59:16;;;;;;;11.93;10.82;;;;;;;18.69;100.00;100777.72;4937376;29;20050;-84
2021/07/12 07:01:44;;;;;;;11.75;10.55;;;;;;;18.70;100.00;100768.75;4936946;29;20050;-82
2021/07/12 07:04:12;;;;;;;12.90;11.50;;;;;;;18.64;100.00;100779.72;4953971;28;20049;-84
2021/07/12 07:06:39;;;;;;;12.30;11.15;;;;;;;18.60;100.00;100783.50;4951906;29;20047;-83
2021/07/12 07:09:06;;;;;;;13.88;12.38;;;;;;;18.49;100.00;100789.41;4922654;29;20043;-82
2021/07/12 07:11:34;;;;;;;14.63;11.85;;;;;;;18.60;100.00;100788.00;4932565;29;20107;-83
2021/07/12 07:14:01;;;;;;;12.45;11.25;;;;;;;18.58;100.00;100801.44;4924802;29;20044;-83
2021/07/12 07:16:28;;;;;;;12.65;11.45;;;;;;;18.58;100.00;100798.75;4920332;28;20043;-82
2021/07/12 07:18:55;;;;;;;14.85;13.30;;;;;;;18.63;100.00;100801.22;4937135;29;20070;-81
2021/07/12 07:21:22;;;;;;;14.57;13.07;;;;;;;18.64;100.00;100813.66;4936540;29;20050;-82
2021/07/12 07:23:49;;;;;;;14.57;12.98;;;;;;;18.77;100.00;100791.56;4918734;29;20055;-78
2021/07/12 07:26:17;;;;;;;13.95;12.55;;;;;;;18.73;100.00;100799.81;4903529;29;20068;-79
2021/07/12 07:28:43;;;;;;;14.55;13.18;;;;;;;18.77;100.00;100807.63;4953315;28;20043;-83
2021/07/12 07:31:10;;;;;;;15.25;13.55;;;;;;;18.93;100.00;100809.50;4936005;29;20069;-79
2021/07/12 07:33:37;;;;;;;14.38;12.70;;;;;;;19.01;100.00;100813.50;4953130;29;20046;-78
2021/07/12 07:36:04;;;;;;;16.15;14.50;;;;;;;19.07;100.00;100812.28;4932234;29;20534;-84
2021/07/12 07:38:31;;;;;;;15.93;14.05;;;;;;;19.07;100.00;100810.47;4936366;28;20040;-81
2021/07/12 07:40:57;;;;;;;13.10;11.80;;;;;;;18.90;100.00;100805.16;4919600;29;20039;-80
2021/07/12 07:43:24;;;;;;;14.70;13.30;;;;;;;18.96;100.00;100807.50;4933701;29;20445;-82
2021/07/12 07:45:51;;;;;;;15.27;13.38;;;;;;;18.92;100.00;100799.72;4929950;29;20043;-79
2021/07/12 07:48:18;;;;;;;15.63;13.93;;;;;;;18.86;100.00;100802.72;4949970;28;20512;-82
2021/07/12 07:50:45;;;;;;;16.80;15.10;;;;;;;19.12;100.00;100796.84;4935299;29;20509;-80
2021/07/12 07:53:12;;;;;;;14.98;13.48;;;;;;;19.11;100.00;100792.44;4936731;29;20476;-79
2021/07/12 07:55:40;;;;;;;16.00;14.40;;;;;;;19.30;100.00;100795.00;4934874;29;20047;-80
2021/07/12 07:58:07;;;;;;;14.25;12.73;;;;;;;19.35;100.00;100800.97;4916531;29;20039;-83
2021/07/12 08:00:34;;;;;;;15.38;13.85;;;;;;;19.47;100.00;100797.63;4935769;29;20052;-79
2021/07/12 08:03:01;;;;;;;15.73;13.40;;;;;;;19.56;100.00;100794.44;4933986;29;20070;-81
2021/07/12 08:05:27;;;;;;;14.95;13.35;;;;;;;19.60;100.00;100793.34;4930301;29;20107;-80
2021/07/12 08:07:55;;;;;;;13.27;11.98;;;;;;;19.65;100.00;100793.06;4917890;29;20047;-81
2021/07/12 08:10:23;;;;;;;14.13;12.63;;;;;;;19.66;100.00;100787.63;4920844;29;20039;-79
2021/07/12 08:12:50;;;;;;;14.07;12.50;;;;;;;19.71;100.00;100787.38;4916775;29;20055;-82
2021/07/12 08:15:18;;;;;;;12.75;11.55;;;;;;;19.83;100.00;100786.66;4904126;29;20047;-82
2021/07/12 08:17:47;;;;;;;12.93;11.75;;;;;;;19.98;100.00;100797.47;4935242;29;20047;-80
2021/07/12 08:20:16;;;;;;;13.38;12.07;;;;;;;20.03;100.00;100790.03;4927721;29;20051;-80
2021/07/12 08:22:50;;;;;;;13.13;11.82;;;;;;;20.14;100.00;100785.78;4918665;29;20043;-82
2021/07/12 08:25:17;;;;;;;12.75;11.55;;;;;;;20.18;100.00;100775.75;4931118;29;20087;-80
2021/07/12 08:27:45;;;;;;;12.82;11.63;;;;;;;20.23;100.00;100782.56;4933357;29;20047;-79
2021/07/12 08:30:13;;;;;;;15.35;12.20;;;;;;;20.45;100.00;100775.97;4906427;29;20051;-84
2021/07/12 08:32:40;;;;;;;15.43;11.50;;;;;;;20.39;100.00;100777.16;4933509;29;20579;-81
2021/07/12 08:35:08;;;;;;;12.82;11.52;;;;;;;20.39;100.00;100778.97;4922786;29;20035;-80
2021/07/12 08:37:35;;;;;;;13.25;12.05;;;;;;;20.32;100.00;100769.56;4941122;29;20062;-81
2021/07/12 08:40:04;;;;;;;13.07;11.68;;;;;;;20.40;100.00;100759.22;4906903;29;20063;-83
2021/07/12 08:42:30;;;;;;;13.07;11.43;;;;;;;20.36;100.00;100746.97;4944872;28;20039;-79
2021/07/12 08:44:58;;;;;;;13.10;11.52;;;;;;;20.45;100.00;100739.25;4945513;29;20039;-79
2021/07/12 08:47:24;;;;;;;13.52;12.18;;;;;;;20.53;100.00;100733.44;4944278;28;20035;-80
2021/07/12 08:49:51;;;;;;;13.00;11.77;;;;;;;20.66;100.00;100737.06;4933399;29;20043;-79
2021/07/12 08:52:18;;;;;;;13.40;12.00;;;;;;;20.74;100.00;100725.88;4946938;28;20067;-80
2021/07/12 08:54:44;;;;;;;13.50;12.15;;;;;;;20.88;100.00;100733.94;4947104;29;20047;-81
2021/07/12 08:57:11;;;;;;;13.73;12.40;;;;;;;20.89;100.00;100732.13;4919629;29;20083;-80
2021/07/12 08:59:40;;;;;;;11.55;10.52;;;;;;;20.91;100.00;100730.19;4917317;29;20073;-79
2021/07/12 09:02:10;;;;;;;12.93;11.70;;;;;;;21.08;100.00;100730.00;4944046;28;20098;-81
2021/07/12 09:04:51;;;;;;;12.00;10.90;;;;;;;21.05;100.00;100738.25;4904340;29;20090;-85
2021/07/12 09:07:27;;;;;;;12.52;11.32;;;;;;;21.19;99.39;100743.63;4934056;29;20043;-81
2021/07/12 09:10:11;;;;;;;12.70;11.50;;;;;;;21.22;99.53;100739.88;4929125;29;20051;-80
2021/07/12 09:12:40;;;;;;;12.52;11.35;;;;;;;21.45;100.00;100730.38;4930482;28;20050;-80
2021/07/12 09:15:08;;;;;;;11.18;10.07;;;;;;;21.46;100.00;100729.44;4903919;29;20054;-82
2021/07/12 09:17:44;;;;;;;13.48;11.27;;;;;;;21.84;99.34;100733.13;4925536;29;20449;-82
2021/07/12 09:20:21;;;;;;;11.70;10.60;;;;;;;22.32;98.10;100724.59;4931604;29;20413;-82
2021/07/12 09:22:48;;;;;;;11.57;10.43;;;;;;;22.46;94.87;100727.22;4939811;29;20058;-81
2021/07/12 09:25:15;;;;;;;10.80;9.75;;;;;;;22.60;91.08;100731.63;4930471;29;20133;-81
2021/07/12 09:27:42;;;;;;;10.65;9.55;;;;;;;22.58;90.44;100726.34;4935326;29;20094;-81
2021/07/12 09:30:15;;;;;;;10.52;9.60;;;;;;;22.94;91.68;100725.63;4951766;28;20696;-79
2021/07/12 09:32:44;;;;;;;9.80;8.90;;;;;;;22.79;84.50;100721.31;4950820;29;20043;-83
2021/07/12 09:35:17;;;;;;;9.95;8.95;;;;;;;23.22;87.35;100716.44;4918880;29;20138;-80
2021/07/12 09:37:47;;;;;;;10.52;9.43;;;;;;;23.57;85.71;100713.88;4950748;29;20105;-85
2021/07/12 09:40:16;;;;;;;9.85;8.95;;;;;;;23.55;82.45;100715.81;4949554;28;20058;-82
2021/07/12 09:42:45;;;;;;;10.57;9.57;;;;;;;23.28;82.47;100713.28;4919057;29;20524;-82
2021/07/12 09:45:13;;;;;;;9.27;8.45;;;;;;;23.55;81.35;100710.44;4924294;29;20102;-83
2021/07/12 09:47:44;;;;;;;9.73;8.80;;;;;;;23.79;84.08;100712.28;4919129;29;20043;-86
2021/07/12 09:50:22;;;;;;;9.07;8.27;;;;;;;23.90;81.04;100706.97;4962405;28;20047;-83
2021/07/12 09:53:04;;;;;;;9.00;8.20;;;;;;;23.52;78.63;100699.84;4951163;29;20075;-81
2021/07/12 09:55:34;;;;;;;10.00;9.20;;;;;;;22.76;82.56;100702.66;4949402;29;20051;-82
2021/07/12 09:58:09;;;;;;;10.13;9.18;;;;;;;23.10;86.06;100700.28;4919277;29;20046;-80
2021/07/12 10:00:48;;;;;;;10.05;9.15;;;;;;;23.41;84.79;100691.69;4944205;29;20171;-84
2021/07/12 10:03:16;;;;;;;9.48;8.52;;;;;;;23.49;80.71;100688.44;4939456;29;20469;-80
2021/07/12 10:05:44;;;;;;;9.10;8.23;;;;;;;23.75;78.82;100676.59;4929655;29;20040;-84
2021/07/12 10:08:11;;;;;;;8.82;8.13;;;;;;;23.79;79.21;100690.69;4933641;29;20055;-83
2021/07/12 10:10:38;;;;;;;8.98;8.27;;;;;;;23.93;86.54;100686.97;4948915;28;20859;-83
2021/07/12 10:13:05;;;;;;;8.88;8.15;;;;;;;23.91;81.67;100689.78;4947424;29;20051;-82
2021/07/12 10:15:32;;;;;;;10.02;8.95;;;;;;;23.97;77.35;100686.63;4915324;29;20052;-85
2021/07/12 10:17:59;;;;;;;9.35;8.45;;;;;;;23.99;77.03;100679.28;4927063;29;20039;-83
2021/07/12 10:20:26;;;;;;;9.88;8.98;;;;;;;23.93;78.74;100682.44;4923540;29;20048;-81
2021/07/12 10:22:57;;;;;;;8.98;8.18;;;;;;;24.23;82.03;100675.69;4949538;29;20047;-81
2021/07/12 10:25:27;;;;;;;9.90;9.00;;;;;;;24.25;77.61;100665.63;4918389;29;20577;-80
2021/07/12 10:27:54;;;;;;;9.63;8.70;;;;;;;24.24;77.37;100669.31;4954498;29;20046;-82
2021/07/12 10:30:33;;;;;;;9.50;8.70;;;;;;;24.02;76.92;100664.69;4931597;29;20052;-82
2021/07/12 10:33:02;;;;;;;9.15;8.35;;;;;;;24.28;79.19;100662.66;4953759;29;20053;-81
2021/07/12 10:35:38;;;;;;;11.52;8.70;;;;;;;24.42;77.58;100657.09;4929558;29;20051;-84
2021/07/12 10:38:04;;;;;;;9.82;9.00;;;;;;;24.29;79.55;100661.69;4935914;29;20435;-81
2021/07/12 10:40:46;;;;;;;9.55;8.73;;;;;;;24.60;77.42;100661.03;4924803;29;20059;-85
2021/07/12 10:43:50;;;;;;;10.50;9.57;;;;;;;25.03;75.90;100652.22;4934572;29;20047;-83
2021/07/12 10:46:30;;;;;;;9.80;9.00;;;;;;;25.01;76.31;100651.47;4950945;29;20054;-81
2021/07/12 10:49:00;;;;;;;9.90;9.10;;;;;;;25.27;72.90;100650.22;4997925;23;20089;-80
2021/07/12 10:51:35;;;;;;;10.52;9.63;;;;;;;25.36;70.72;100655.88;4979308;28;20046;-80
2021/07/12 10:54:14;;;;;;;12.52;9.60;;;;;;;25.42;72.82;100660.78;4965980;28;20052;-81
2021/07/12 10:56:45;;;;;;;9.48;8.63;;;;;;;25.52;72.63;100656.31;4980847;28;20078;-80
2021/07/12 10:59:30;;;;;;;8.95;8.25;;;;;;;25.48;72.02;100652.16;4956683;28;20117;-81
2021/07/12 11:01:58;;;;;;;10.45;9.52;;;;;;;25.54;70.43;100651.63;4953467;28;20042;-80
2021/07/12 11:04:37;;;;;;;10.77;9.77;;;;;;;25.43;69.55;100649.84;4960363;28;20043;-80
2021/07/12 11:07:09;;;;;;;11.10;10.20;;;;;;;25.24;71.72;100645.09;4937656;28;20047;-79
2021/07/12 11:09:54;;;;;;;11.63;10.63;;;;;;;25.58;71.36;100644.16;4968077;28;20057;-81
2021/07/12 11:12:38;;;;;;;12.50;11.30;;;;;;;25.33;70.00;100635.34;4961528;28;20060;-80
2021/07/12 11:15:10;;;;;;;;;;;;;;;25.25;70.68;100636.00;4990743;28;20069;-81
2021/07/12 11:18:01;;;;;;;11.25;10.35;;;;;;;25.46;68.66;100629.78;4973515;28;19933;-80